M/T Goviken — 9HA2718 — position and weather

sailwx.info

Track history (hours):
 
Tides and Currents Weather Stations Pressure Air Temp Water Temp Dewpoint Dewpoint Depression Visibility Wind Speed Wind Dir Waves Ship Positions

M/T Goviken

Last reported at 2015-Jul-06 02:11 UTC. Time now 2015-Jul-06 07:11 UTC.
Position N 52°07' E 003°44'.

Length 88 m; draft 5.9 m.

Type: Ship (hazmat cat A). MMSI: 215389000.

Date/timePositionNaut miles runAvg speedWind from/ knotsBaromVisibWave heightAir tempDewpointWater temp
2015-Jul-06 02:11N 52°07' E 003°44'0 0.1
2015-Jul-06 01:32N 52°07' E 003°44'0 0.1
2015-Jul-06 00:32N 52°07' E 003°43'0 0.0
2015-Jul-05 23:32N 52°07' E 003°43'0 0.1
2015-Jul-05 21:29N 52°07' E 003°44'0 0.1
2015-Jul-05 20:29N 52°07' E 003°44'0 0.0
2015-Jul-05 17:11N 52°07' E 003°44'0 0.0
2015-Jul-05 16:32N 52°07' E 003°44'0 0.0
2015-Jul-05 15:32N 52°07' E 003°44'0 0.1
2015-Jul-05 14:32N 52°07' E 003°44'0 0.0
2015-Jul-05 13:20N 52°07' E 003°44'0 0.1
2015-Jul-05 12:32N 52°07' E 003°44'0 0.1
2015-Jul-05 11:32N 52°07' E 003°44'0 0.0
2015-Jul-05 10:32N 52°07' E 003°44'0 0.0
2015-Jul-05 09:32N 52°07' E 003°44'0 0.0
2015-Jul-05 08:32N 52°07' E 003°44'0 0.1
2015-Jul-05 07:29N 52°07' E 003°44'0 0.0
2015-Jul-05 06:14N 52°07' E 003°44'0 0.0
2015-Jul-05 05:29N 52°07' E 003°44'0 0.0
2015-Jul-05 04:32N 52°07' E 003°44'0 0.0
2015-Jul-05 03:29N 52°07' E 003°44'0 0.1
2015-Jul-05 02:29N 52°07' E 003°44'0 0.0
2015-Jul-05 01:32N 52°07' E 003°44'0 0.1
2015-Jul-05 00:32N 52°07' E 003°44'0 0.1
2015-Jul-04 23:32N 52°07' E 003°44'0 0.0
2015-Jul-04 22:32N 52°07' E 003°44'0 0.0
2015-Jul-04 21:29N 52°07' E 003°44'0 0.2
2015-Jul-04 20:29N 52°07' E 003°44'0 0.0
2015-Jul-04 19:23N 52°07' E 003°44'0 0.0
2015-Jul-04 18:32N 52°07' E 003°44'0 0.0
2015-Jul-04 17:32N 52°07' E 003°44'0 0.0
2015-Jul-04 16:29N 52°07' E 003°44'0 0.0
2015-Jul-04 15:32N 52°07' E 003°44'0 0.0
2015-Jul-04 14:32N 52°07' E 003°44'0 0.1
2015-Jul-04 13:34N 52°07' E 003°44'10 9.6
2015-Jul-04 12:34N 52°17' E 003°47'1212.4
2015-Jul-04 11:34N 52°29' E 003°51'1312.9
2015-Jul-04 10:34N 52°41' E 003°55'1313.2
2015-Jul-04 09:33N 52°54' E 003°59'1212.3
2015-Jul-04 08:34N 53°04' E 004°13'1210.9
2015-Jul-04 07:30N 53°12' E 004°26'1010.4
2015-Jul-04 06:34N 53°21' E 004°31'1110.7
2015-Jul-04 05:34N 53°32' E 004°37'1111.1
2015-Jul-04 04:34N 53°42' E 004°43'1312.4
2015-Jul-04 03:32N 53°54' E 004°50'1812.6
2015-Jul-04 02:07N 54°11' E 005°00'712.5
2015-Jul-04 01:33N 54°18' E 005°04'25811.1
2015-Jul-03 02:20N 58°35' E 005°05'8 9.9
2015-Jul-03 01:33N 58°43' E 005°06'1110.6
2015-Jul-03 00:33N 58°53' E 005°07'1111.3
2015-Jul-02 23:33N 59°04' E 005°15'10 9.9
2015-Jul-02 22:33N 59°10' E 005°30'6 0.3
2015-Jul-01 23:32N 59°16' E 005°30'2 2.1
2015-Jul-01 22:31N 59°14' E 005°32'0 0.0
2015-Jul-01 21:32N 59°14' E 005°32'0 0.1
2015-Jul-01 20:32N 59°14' E 005°32'0 0.0
2015-Jul-01 18:07N 59°14' E 005°32'2 4.3
2015-Jul-01 17:33N 59°12' E 005°32'8 8.3
2015-Jul-01 16:33N 59°05' E 005°23'4 4.4
2015-Jul-01 15:33N 59°03' E 005°15'4 3.9
2015-Jul-01 14:33N 58°59' E 005°12'2 1.9
2015-Jul-01 13:33N 58°58' E 005°10'8 7.6
2015-Jul-01 12:33N 58°50' E 005°06'7 7.4
2015-Jul-01 11:33N 58°43' E 005°06'7 6.9
2015-Jul-01 10:33N 58°36' E 005°05'7 6.6
2015-Jul-01 09:33N 58°30' E 005°04'8 7.0
2015-Jul-01 08:23N 58°21' E 005°03'6 7.2
2015-Jul-01 07:32N 58°15' E 005°02'7 7.2
2015-Jul-01 06:33N 58°08' E 005°04'7 7.4
2015-Jul-01 05:33N 58°01' E 005°06'228 9.1
2015-Jun-30 04:34N 54°13' E 005°10'1111.2
2015-Jun-30 03:33N 54°02' E 005°05'1111.2
2015-Jun-30 02:34N 53°51' E 004°59'1111.0
2015-Jun-30 01:34N 53°41' E 004°52'1110.6
2015-Jun-30 00:34N 53°31' E 004°46'10 9.7
2015-Jun-29 23:34N 53°22' E 004°39'1010.0
2015-Jun-29 22:33N 53°13' E 004°34'10 9.8
2015-Jun-29 21:33N 53°04' E 004°26'1010.0
2015-Jun-29 20:34N 52°55' E 004°18'10 9.9
2015-Jun-29 19:33N 52°47' E 004°11'1010.0
2015-Jun-29 18:33N 52°39' E 003°60'1010.0
2015-Jun-29 17:33N 52°32' E 003°48'1010.0
2015-Jun-29 16:34N 52°24' E 003°39'1010.4
2015-Jun-29 15:33N 52°13' E 003°41'6 6.1
2015-Jun-29 14:30N 52°07' E 003°44'0 0.0
2015-Jun-29 13:33N 52°07' E 003°44'0 0.0
2015-Jun-29 12:30N 52°07' E 003°44'0 0.0
2015-Jun-29 11:33N 52°07' E 003°44'0 0.0
2015-Jun-29 10:30N 52°07' E 003°44'0 0.1
2015-Jun-29 09:33N 52°07' E 003°44'0 0.0
2015-Jun-29 08:33N 52°07' E 003°44'0 0.0
2015-Jun-29 07:33N 52°07' E 003°44'0 0.0
2015-Jun-29 06:33N 52°07' E 003°44'0 0.0
2015-Jun-29 05:30N 52°07' E 003°44'0 0.1
2015-Jun-29 04:33N 52°07' E 003°44'0 0.1
2015-Jun-29 03:33N 52°07' E 003°44'0 0.0
2015-Jun-29 02:33N 52°07' E 003°44'0 0.0
2015-Jun-29 01:27N 52°07' E 003°44'0 0.0
2015-Jun-29 00:30N 52°07' E 003°44'0 0.0
2015-Jun-28 23:33N 52°07' E 003°44'9 8.6
2015-Jun-28 22:33N 52°03' E 003°56'1010.3
2015-Jun-28 21:34N 51°57' E 004°09'5 4.5
2015-Jun-28 20:33N 51°53' E 004°14'1 0.9
2015-Jun-28 19:23N 51°53' E 004°15'0 0.0
2015-Jun-28 18:23N 51°53' E 004°15'0 0.0
2015-Jun-28 17:23N 51°53' E 004°15'0 0.0
2015-Jun-28 16:29N 51°53' E 004°15'0 0.0
2015-Jun-28 15:29N 51°53' E 004°15'0 0.0
2015-Jun-28 14:26N 51°53' E 004°15'0 0.0
2015-Jun-28 13:32N 51°53' E 004°15'0 0.0
2015-Jun-28 12:32N 51°53' E 004°15'0 0.0
2015-Jun-28 11:32N 51°53' E 004°15'0 0.0
2015-Jun-28 10:32N 51°53' E 004°15'0 0.0
2015-Jun-28 09:29N 51°53' E 004°15'0 0.0
2015-Jun-28 08:29N 51°53' E 004°15'0 0.0
2015-Jun-28 07:29N 51°53' E 004°15'0 0.0
2015-Jun-28 06:23N 51°53' E 004°15'0 0.0
2015-Jun-28 05:29N 51°53' E 004°15'0 0.0
2015-Jun-28 04:29N 51°53' E 004°15'0 0.0
2015-Jun-28 03:32N 51°53' E 004°15'0 0.0
2015-Jun-28 02:32N 51°53' E 004°15'0 0.0
2015-Jun-28 01:23N 51°53' E 004°15'0 0.0
2015-Jun-28 00:32N 51°53' E 004°15'0 0.0
2015-Jun-27 23:29N 51°53' E 004°15'0 0.0
2015-Jun-27 22:29N 51°53' E 004°15'0 0.0
2015-Jun-27 20:11N 51°53' E 004°15'0 0.0
2015-Jun-27 19:23N 51°53' E 004°15'0 0.0
2015-Jun-27 13:23N 51°53' E 004°15'0 0.0
2015-Jun-27 12:29N 51°53' E 004°15'0 0.3
2015-Jun-27 11:33N 51°53' E 004°15'3 3.2
2015-Jun-27 10:33N 51°56' E 004°12'1110.5
2015-Jun-27 09:34N 52°00' E 003°57'10 9.6
2015-Jun-27 08:33N 52°07' E 003°45'2 1.6
2015-Jun-27 07:33N 52°08' E 003°44'0 0.1
2015-Jun-27 06:33N 52°08' E 003°44'0 0.0
2015-Jun-27 05:33N 52°08' E 003°44'0 0.0
2015-Jun-27 04:33N 52°08' E 003°44'0 0.1
2015-Jun-27 03:30N 52°08' E 003°44'0 0.1
2015-Jun-27 02:33N 52°08' E 003°44'0 0.0
2015-Jun-27 01:33N 52°08' E 003°44'0 0.0
2015-Jun-27 00:33N 52°08' E 003°44'0 0.0
2015-Jun-26 23:33N 52°08' E 003°44'0 0.0
2015-Jun-26 21:30N 52°08' E 003°44'0 0.0
2015-Jun-26 20:21N 52°08' E 003°44'0 0.0
2015-Jun-26 19:33N 52°08' E 003°44'0 0.1
2015-Jun-26 18:30N 52°08' E 003°44'0 0.1
2015-Jun-26 17:30N 52°08' E 003°44'0 0.0
2015-Jun-26 16:24N 52°08' E 003°44'0 0.0
2015-Jun-26 15:24N 52°08' E 003°44'0 0.0
2015-Jun-26 14:33N 52°08' E 003°44'0 0.1
2015-Jun-26 13:33N 52°08' E 003°44'0 0.0
2015-Jun-26 12:33N 52°08' E 003°44'0 0.0
2015-Jun-26 11:33N 52°08' E 003°44'0 0.0
2015-Jun-26 10:33N 52°08' E 003°44'0 0.0
2015-Jun-26 09:33N 52°08' E 003°44'0 0.0
2015-Jun-26 08:33N 52°08' E 003°44'0 0.0
2015-Jun-26 07:33N 52°08' E 003°44'0 0.1
2015-Jun-26 06:33N 52°08' E 003°44'0 0.1
2015-Jun-26 05:33N 52°08' E 003°44'0 0.0
2015-Jun-26 04:30N 52°08' E 003°44'0 0.0
2015-Jun-26 03:30N 52°08' E 003°44'0 0.0
2015-Jun-26 02:33N 52°08' E 003°44'  
Track history (hours):
 
Tides and Currents Weather Stations Pressure Air Temp Water Temp Dewpoint Dewpoint Depression Visibility Wind Speed Wind Dir Waves Ship Positions

M/T Goviken

Last reported at 2015-Jul-06 02:11 UTC. Time now 2015-Jul-06 07:11 UTC.
Position N 52°07' E 003°44'.

Length 88 m; draft 5.9 m.

Type: Ship (hazmat cat A). MMSI: 215389000.

Date/timePositionNaut miles runAvg speedWind from/ knotsBaromVisibWave heightAir tempDewpointWater temp
2015-Jul-06 02:11N 52°07' E 003°44'0 0.1
2015-Jul-06 01:32N 52°07' E 003°44'0 0.1
2015-Jul-06 00:32N 52°07' E 003°43'0 0.0
2015-Jul-05 23:32N 52°07' E 003°43'0 0.1
2015-Jul-05 21:29N 52°07' E 003°44'0 0.1
2015-Jul-05 20:29N 52°07' E 003°44'0 0.0
2015-Jul-05 17:11N 52°07' E 003°44'0 0.0
2015-Jul-05 16:32N 52°07' E 003°44'0 0.0
2015-Jul-05 15:32N 52°07' E 003°44'0 0.1
2015-Jul-05 14:32N 52°07' E 003°44'0 0.0
2015-Jul-05 13:20N 52°07' E 003°44'0 0.1
2015-Jul-05 12:32N 52°07' E 003°44'0 0.1
2015-Jul-05 11:32N 52°07' E 003°44'0 0.0
2015-Jul-05 10:32N 52°07' E 003°44'0 0.0
2015-Jul-05 09:32N 52°07' E 003°44'0 0.0
2015-Jul-05 08:32N 52°07' E 003°44'0 0.1
2015-Jul-05 07:29N 52°07' E 003°44'0 0.0
2015-Jul-05 06:14N 52°07' E 003°44'0 0.0
2015-Jul-05 05:29N 52°07' E 003°44'0 0.0
2015-Jul-05 04:32N 52°07' E 003°44'0 0.0
2015-Jul-05 03:29N 52°07' E 003°44'0 0.1
2015-Jul-05 02:29N 52°07' E 003°44'0 0.0
2015-Jul-05 01:32N 52°07' E 003°44'0 0.1
2015-Jul-05 00:32N 52°07' E 003°44'0 0.1
2015-Jul-04 23:32N 52°07' E 003°44'0 0.0
2015-Jul-04 22:32N 52°07' E 003°44'0 0.0
2015-Jul-04 21:29N 52°07' E 003°44'0 0.2
2015-Jul-04 20:29N 52°07' E 003°44'0 0.0
2015-Jul-04 19:23N 52°07' E 003°44'0 0.0
2015-Jul-04 18:32N 52°07' E 003°44'0 0.0
2015-Jul-04 17:32N 52°07' E 003°44'0 0.0
2015-Jul-04 16:29N 52°07' E 003°44'0 0.0
2015-Jul-04 15:32N 52°07' E 003°44'0 0.0
2015-Jul-04 14:32N 52°07' E 003°44'0 0.1
2015-Jul-04 13:34N 52°07' E 003°44'10 9.6
2015-Jul-04 12:34N 52°17' E 003°47'1212.4
2015-Jul-04 11:34N 52°29' E 003°51'1312.9
2015-Jul-04 10:34N 52°41' E 003°55'1313.2
2015-Jul-04 09:33N 52°54' E 003°59'1212.3
2015-Jul-04 08:34N 53°04' E 004°13'1210.9
2015-Jul-04 07:30N 53°12' E 004°26'1010.4
2015-Jul-04 06:34N 53°21' E 004°31'1110.7
2015-Jul-04 05:34N 53°32' E 004°37'1111.1
2015-Jul-04 04:34N 53°42' E 004°43'1312.4
2015-Jul-04 03:32N 53°54' E 004°50'1812.6
2015-Jul-04 02:07N 54°11' E 005°00'712.5
2015-Jul-04 01:33N 54°18' E 005°04'25811.1
2015-Jul-03 02:20N 58°35' E 005°05'8 9.9
2015-Jul-03 01:33N 58°43' E 005°06'1110.6
2015-Jul-03 00:33N 58°53' E 005°07'1111.3
2015-Jul-02 23:33N 59°04' E 005°15'10 9.9
2015-Jul-02 22:33N 59°10' E 005°30'6 0.3
2015-Jul-01 23:32N 59°16' E 005°30'2 2.1
2015-Jul-01 22:31N 59°14' E 005°32'0 0.0
2015-Jul-01 21:32N 59°14' E 005°32'0 0.1
2015-Jul-01 20:32N 59°14' E 005°32'0 0.0
2015-Jul-01 18:07N 59°14' E 005°32'2 4.3
2015-Jul-01 17:33N 59°12' E 005°32'8 8.3
2015-Jul-01 16:33N 59°05' E 005°23'4 4.4
2015-Jul-01 15:33N 59°03' E 005°15'4 3.9
2015-Jul-01 14:33N 58°59' E 005°12'2 1.9
2015-Jul-01 13:33N 58°58' E 005°10'8 7.6
2015-Jul-01 12:33N 58°50' E 005°06'7 7.4
2015-Jul-01 11:33N 58°43' E 005°06'7 6.9
2015-Jul-01 10:33N 58°36' E 005°05'7 6.6
2015-Jul-01 09:33N 58°30' E 005°04'8 7.0
2015-Jul-01 08:23N 58°21' E 005°03'6 7.2
2015-Jul-01 07:32N 58°15' E 005°02'7 7.2
2015-Jul-01 06:33N 58°08' E 005°04'7 7.4
2015-Jul-01 05:33N 58°01' E 005°06'228 9.1
2015-Jun-30 04:34N 54°13' E 005°10'1111.2
2015-Jun-30 03:33N 54°02' E 005°05'1111.2
2015-Jun-30 02:34N 53°51' E 004°59'1111.0
2015-Jun-30 01:34N 53°41' E 004°52'1110.6
2015-Jun-30 00:34N 53°31' E 004°46'10 9.7
2015-Jun-29 23:34N 53°22' E 004°39'1010.0
2015-Jun-29 22:33N 53°13' E 004°34'10 9.8
2015-Jun-29 21:33N 53°04' E 004°26'1010.0
2015-Jun-29 20:34N 52°55' E 004°18'10 9.9
2015-Jun-29 19:33N 52°47' E 004°11'1010.0
2015-Jun-29 18:33N 52°39' E 003°60'1010.0
2015-Jun-29 17:33N 52°32' E 003°48'1010.0
2015-Jun-29 16:34N 52°24' E 003°39'1010.4
2015-Jun-29 15:33N 52°13' E 003°41'6 6.1
2015-Jun-29 14:30N 52°07' E 003°44'0 0.0
2015-Jun-29 13:33N 52°07' E 003°44'0 0.0
2015-Jun-29 12:30N 52°07' E 003°44'0 0.0
2015-Jun-29 11:33N 52°07' E 003°44'0 0.0
2015-Jun-29 10:30N 52°07' E 003°44'0 0.1
2015-Jun-29 09:33N 52°07' E 003°44'0 0.0
2015-Jun-29 08:33N 52°07' E 003°44'0 0.0
2015-Jun-29 07:33N 52°07' E 003°44'0 0.0
2015-Jun-29 06:33N 52°07' E 003°44'0 0.0
2015-Jun-29 05:30N 52°07' E 003°44'0 0.1
2015-Jun-29 04:33N 52°07' E 003°44'0 0.1
2015-Jun-29 03:33N 52°07' E 003°44'0 0.0
2015-Jun-29 02:33N 52°07' E 003°44'0 0.0
2015-Jun-29 01:27N 52°07' E 003°44'0 0.0
2015-Jun-29 00:30N 52°07' E 003°44'0 0.0
2015-Jun-28 23:33N 52°07' E 003°44'9 8.6
2015-Jun-28 22:33N 52°03' E 003°56'1010.3
2015-Jun-28 21:34N 51°57' E 004°09'5 4.5
2015-Jun-28 20:33N 51°53' E 004°14'1 0.9
2015-Jun-28 19:23N 51°53' E 004°15'0 0.0
2015-Jun-28 18:23N 51°53' E 004°15'0 0.0
2015-Jun-28 17:23N 51°53' E 004°15'0 0.0
2015-Jun-28 16:29N 51°53' E 004°15'0 0.0
2015-Jun-28 15:29N 51°53' E 004°15'0 0.0
2015-Jun-28 14:26N 51°53' E 004°15'0 0.0
2015-Jun-28 13:32N 51°53' E 004°15'0 0.0
2015-Jun-28 12:32N 51°53' E 004°15'0 0.0
2015-Jun-28 11:32N 51°53' E 004°15'0 0.0
2015-Jun-28 10:32N 51°53' E 004°15'0 0.0
2015-Jun-28 09:29N 51°53' E 004°15'0 0.0
2015-Jun-28 08:29N 51°53' E 004°15'0 0.0
2015-Jun-28 07:29N 51°53' E 004°15'0 0.0
2015-Jun-28 06:23N 51°53' E 004°15'0 0.0
2015-Jun-28 05:29N 51°53' E 004°15'0 0.0
2015-Jun-28 04:29N 51°53' E 004°15'0 0.0
2015-Jun-28 03:32N 51°53' E 004°15'0 0.0
2015-Jun-28 02:32N 51°53' E 004°15'0 0.0
2015-Jun-28 01:23N 51°53' E 004°15'0 0.0
2015-Jun-28 00:32N 51°53' E 004°15'0 0.0
2015-Jun-27 23:29N 51°53' E 004°15'0 0.0
2015-Jun-27 22:29N 51°53' E 004°15'0 0.0
2015-Jun-27 20:11N 51°53' E 004°15'0 0.0
2015-Jun-27 19:23N 51°53' E 004°15'0 0.0
2015-Jun-27 13:23N 51°53' E 004°15'0 0.0
2015-Jun-27 12:29N 51°53' E 004°15'0 0.3
2015-Jun-27 11:33N 51°53' E 004°15'3 3.2
2015-Jun-27 10:33N 51°56' E 004°12'1110.5
2015-Jun-27 09:34N 52°00' E 003°57'10 9.6
2015-Jun-27 08:33N 52°07' E 003°45'2 1.6
2015-Jun-27 07:33N 52°08' E 003°44'0 0.1
2015-Jun-27 06:33N 52°08' E 003°44'0 0.0
2015-Jun-27 05:33N 52°08' E 003°44'0 0.0
2015-Jun-27 04:33N 52°08' E 003°44'0 0.1
2015-Jun-27 03:30N 52°08' E 003°44'0 0.1
2015-Jun-27 02:33N 52°08' E 003°44'0 0.0
2015-Jun-27 01:33N 52°08' E 003°44'0 0.0
2015-Jun-27 00:33N 52°08' E 003°44'0 0.0
2015-Jun-26 23:33N 52°08' E 003°44'0 0.0
2015-Jun-26 21:30N 52°08' E 003°44'0 0.0
2015-Jun-26 20:21N 52°08' E 003°44'0 0.0
2015-Jun-26 19:33N 52°08' E 003°44'0 0.1
2015-Jun-26 18:30N 52°08' E 003°44'0 0.1
2015-Jun-26 17:30N 52°08' E 003°44'0 0.0
2015-Jun-26 16:24N 52°08' E 003°44'0 0.0
2015-Jun-26 15:24N 52°08' E 003°44'0 0.0
2015-Jun-26 14:33N 52°08' E 003°44'0 0.1
2015-Jun-26 13:33N 52°08' E 003°44'0 0.0
2015-Jun-26 12:33N 52°08' E 003°44'0 0.0
2015-Jun-26 11:33N 52°08' E 003°44'0 0.0
2015-Jun-26 10:33N 52°08' E 003°44'0 0.0
2015-Jun-26 09:33N 52°08' E 003°44'0 0.0
2015-Jun-26 08:33N 52°08' E 003°44'0 0.0
2015-Jun-26 07:33N 52°08' E 003°44'0 0.1
2015-Jun-26 06:33N 52°08' E 003°44'0 0.1
2015-Jun-26 05:33N 52°08' E 003°44'0 0.0
2015-Jun-26 04:30N 52°08' E 003°44'0 0.0
2015-Jun-26 03:30N 52°08' E 003°44'0 0.0
2015-Jun-26 02:33N 52°08' E 003°44'  

Dump ship's entire track history